No.10 Hasshomaru — JD2992 — position and weather

sailwx.info

Track history (hours):
 
Tides and Currents Weather Stations Pressure Air Temp Water Temp Dewpoint Dewpoint Depression Visibility Wind Speed Wind Dir Waves Ship Positions

No.10 Hasshomaru

Last reported at 2014-Sep-04 12:33 UTC. Time now 2014-Sep-30 21:56 UTC.
Position N 36°03' E 140°45'.
Warning: this ship's position is 26 days out of date.

Length 105 m; draft 6.7 m.

Type: Tanker. MMSI: 431001112.

Date/timePositionNaut miles runAvg speedWind from/ knotsBaromVisibWave heightAir tempDewpointWater temp
2014-Sep-04 12:33N 36°03' E 140°45'9 8.9
2014-Sep-04 11:33N 35°55' E 140°41'0 0.0
2014-Sep-04 04:32N 35°55' E 140°41'9 9.5
2014-Sep-04 03:32N 36°03' E 140°45'  
2014-Sep-01 07:33N 36°01' E 140°43'7 0.8
2014-Aug-31 23:20N 35°55' E 140°41'3 4.0
2014-Aug-31 22:33N 35°57' E 140°42'4 3.2
2014-Aug-31 21:26N 36°01' E 140°43'0 0.0
2014-Aug-31 20:29N 36°01' E 140°43'0 0.0
2014-Aug-31 19:23N 36°01' E 140°43'0 0.0
2014-Aug-31 18:32N 36°01' E 140°43'0 0.0
2014-Aug-31 17:23N 36°01' E 140°43'0 0.0
2014-Aug-31 16:33N 36°01' E 140°43'0 0.0
2014-Aug-31 15:26N 36°01' E 140°43'0 0.0
2014-Aug-31 14:30N 36°01' E 140°43'0 0.0
2014-Aug-31 13:28N 36°01' E 140°43'0 0.0
2014-Aug-31 12:33N 36°01' E 140°43'0 0.0
2014-Aug-31 11:33N 36°01' E 140°43'0 0.0
2014-Aug-31 10:23N 36°01' E 140°43'0 0.0
2014-Aug-31 09:11N 36°01' E 140°43'0 0.0
2014-Aug-31 08:20N 36°01' E 140°43'  
2014-Aug-28 08:33N 35°59' E 140°44'5 0.6
2014-Aug-27 23:05N 35°55' E 140°41'2 4.2
2014-Aug-27 22:33N 35°56' E 140°42'4 3.8
2014-Aug-27 21:30N 35°60' E 140°45'0 0.0
2014-Aug-27 20:33N 35°60' E 140°45'0 0.0
2014-Aug-27 19:33N 35°60' E 140°45'0 0.0
2014-Aug-27 18:33N 35°60' E 140°45'0 0.0
2014-Aug-27 17:33N 35°60' E 140°45'0 0.0
2014-Aug-27 16:33N 35°60' E 140°45'  
Track history (hours):
 
Tides and Currents Weather Stations Pressure Air Temp Water Temp Dewpoint Dewpoint Depression Visibility Wind Speed Wind Dir Waves Ship Positions

No.10 Hasshomaru

Last reported at 2014-Sep-04 12:33 UTC. Time now 2014-Sep-30 21:56 UTC.
Position N 36°03' E 140°45'.
Warning: this ship's position is 26 days out of date.

Length 105 m; draft 6.7 m.

Type: Tanker. MMSI: 431001112.

Date/timePositionNaut miles runAvg speedWind from/ knotsBaromVisibWave heightAir tempDewpointWater temp
2014-Sep-04 12:33N 36°03' E 140°45'9 8.9
2014-Sep-04 11:33N 35°55' E 140°41'0 0.0
2014-Sep-04 04:32N 35°55' E 140°41'9 9.5
2014-Sep-04 03:32N 36°03' E 140°45'  
2014-Sep-01 07:33N 36°01' E 140°43'7 0.8
2014-Aug-31 23:20N 35°55' E 140°41'3 4.0
2014-Aug-31 22:33N 35°57' E 140°42'4 3.2
2014-Aug-31 21:26N 36°01' E 140°43'0 0.0
2014-Aug-31 20:29N 36°01' E 140°43'0 0.0
2014-Aug-31 19:23N 36°01' E 140°43'0 0.0
2014-Aug-31 18:32N 36°01' E 140°43'0 0.0
2014-Aug-31 17:23N 36°01' E 140°43'0 0.0
2014-Aug-31 16:33N 36°01' E 140°43'0 0.0
2014-Aug-31 15:26N 36°01' E 140°43'0 0.0
2014-Aug-31 14:30N 36°01' E 140°43'0 0.0
2014-Aug-31 13:28N 36°01' E 140°43'0 0.0
2014-Aug-31 12:33N 36°01' E 140°43'0 0.0
2014-Aug-31 11:33N 36°01' E 140°43'0 0.0
2014-Aug-31 10:23N 36°01' E 140°43'0 0.0
2014-Aug-31 09:11N 36°01' E 140°43'0 0.0
2014-Aug-31 08:20N 36°01' E 140°43'  
2014-Aug-28 08:33N 35°59' E 140°44'5 0.6
2014-Aug-27 23:05N 35°55' E 140°41'2 4.2
2014-Aug-27 22:33N 35°56' E 140°42'4 3.8
2014-Aug-27 21:30N 35°60' E 140°45'0 0.0
2014-Aug-27 20:33N 35°60' E 140°45'0 0.0
2014-Aug-27 19:33N 35°60' E 140°45'0 0.0
2014-Aug-27 18:33N 35°60' E 140°45'0 0.0
2014-Aug-27 17:33N 35°60' E 140°45'0 0.0
2014-Aug-27 16:33N 35°60' E 140°45'  

Dump ship's entire track history